Time;durP1;ratioP1;P1;durP2;ratioP2;P2;SDS_P1;SDS_P2;PMS_P1;PMS_P2;Temp;Humidity;BMP_temperature;BMP_pressure;BME280_temperature;BME280_humidity;BME280_pressure;Samples;Min_cycle;Max_cycle;Signal;HPM_P1;HPM_P2
2023/12/30 00:01:43;;;;;;;7.07;1.30;;;;;;;;;;5014437;28;20465;-73
2023/12/30 00:04:08;;;;;;;9.73;1.48;;;;;;;;;;5014332;28;20466;-73
2023/12/30 00:06:34;;;;;;;11.52;1.77;;;;;;;;;;5012655;28;20030;-73
2023/12/30 00:08:59;;;;;;;14.27;1.92;;;;;;;;;;5014277;28;20025;-72
2023/12/30 00:11:24;;;;;;;20.00;3.35;;;;;;;;;;5013389;28;20029;-73
2023/12/30 00:13:50;;;;;;;14.10;2.03;;;;;;;;;;5014294;28;20112;-74
2023/12/30 00:16:15;;;;;;;10.10;1.63;;;;;;;;;;5014195;28;20084;-74
2023/12/30 00:18:40;;;;;;;17.25;2.83;;;;;;;;;;5014471;28;20272;-73
2023/12/30 00:21:06;;;;;;;8.77;1.63;;;;;;;;;;5013806;28;20467;-73
2023/12/30 00:23:31;;;;;;;11.15;2.30;;;;;;;;;;5014075;28;20037;-73
2023/12/30 00:25:57;;;;;;;16.27;2.13;;;;;;;;;;5013934;28;20029;-73
2023/12/30 00:28:22;;;;;;;10.98;2.08;;;;;;;;;;5013949;28;20029;-73
2023/12/30 00:30:47;;;;;;;9.80;1.45;;;;;;;;;;5014023;28;20049;-73
2023/12/30 00:33:12;;;;;;;7.45;1.75;;;;;;;;;;5013854;28;20025;-73
2023/12/30 00:35:38;;;;;;;9.23;2.40;;;;;;;;;;5013567;28;20378;-74
2023/12/30 00:38:03;;;;;;;9.40;1.70;;;;;;;;;;5013853;28;20036;-74
2023/12/30 00:40:28;;;;;;;16.38;1.70;;;;;;;;;;5013503;28;20101;-73
2023/12/30 00:42:53;;;;;;;15.05;2.00;;;;;;;;;;5013509;28;20465;-72
2023/12/30 00:45:19;;;;;;;8.35;1.73;;;;;;;;;;5013691;28;20083;-73
2023/12/30 00:47:44;;;;;;;16.17;1.83;;;;;;;;;;5014322;28;20033;-73
2023/12/30 00:50:09;;;;;;;10.73;1.65;;;;;;;;;;5013347;28;20268;-73
2023/12/30 00:52:34;;;;;;;17.63;2.13;;;;;;;;;;5014092;28;20049;-73
2023/12/30 00:54:59;;;;;;;5.75;1.40;;;;;;;;;;5013559;28;20046;-74
2023/12/30 00:57:25;;;;;;;9.52;2.15;;;;;;;;;;5013275;28;20368;-74
2023/12/30 00:59:50;;;;;;;11.77;1.88;;;;;;;;;;5013618;28;20101;-73
2023/12/30 01:02:15;;;;;;;16.05;1.92;;;;;;;;;;5012908;28;20069;-73
2023/12/30 01:04:40;;;;;;;11.40;1.93;;;;;;;;;;5013241;28;20026;-73
2023/12/30 01:07:06;;;;;;;13.55;1.98;;;;;;;;;;5013129;28;20284;-74
2023/12/30 01:09:31;;;;;;;12.57;2.08;;;;;;;;;;5013458;28;20022;-74
2023/12/30 01:11:56;;;;;;;20.03;2.53;;;;;;;;;;5013237;28;20372;-73
2023/12/30 01:14:21;;;;;;;13.07;2.22;;;;;;;;;;5013056;28;20355;-74
2023/12/30 01:16:47;;;;;;;17.45;2.53;;;;;;;;;;5013413;28;20032;-74
2023/12/30 01:19:12;;;;;;;16.05;1.80;;;;;;;;;;5013361;28;20030;-73
2023/12/30 01:21:38;;;;;;;15.38;2.65;;;;;;;;;;5013395;28;20024;-74
2023/12/30 01:24:03;;;;;;;13.40;2.53;;;;;;;;;;5013350;28;20100;-73
2023/12/30 01:26:29;;;;;;;12.88;1.83;;;;;;;;;;5011904;28;20030;-73
2023/12/30 01:28:54;;;;;;;8.50;1.67;;;;;;;;;;5013333;28;20026;-73
2023/12/30 01:31:19;;;;;;;13.32;2.17;;;;;;;;;;5013247;28;20022;-73
2023/12/30 01:33:45;;;;;;;11.77;1.88;;;;;;;;;;5013275;28;20026;-72
2023/12/30 01:36:11;;;;;;;10.13;1.52;;;;;;;;;;4995858;28;20018;-74
2023/12/30 01:38:36;;;;;;;10.30;2.88;;;;;;;;;;5012942;28;20022;-74
2023/12/30 01:41:01;;;;;;;12.73;1.90;;;;;;;;;;5012348;28;20100;-80
2023/12/30 01:43:27;;;;;;;13.57;1.70;;;;;;;;;;5011985;28;20025;-82
2023/12/30 01:45:55;;;;;;;15.13;1.73;;;;;;;;;;5012165;28;20358;-80
2023/12/30 01:48:21;;;;;;;12.45;1.65;;;;;;;;;;5012066;28;20038;-82
2023/12/30 01:50:47;;;;;;;13.82;1.75;;;;;;;;;;5012367;28;20109;-79
2023/12/30 01:53:13;;;;;;;14.70;1.88;;;;;;;;;;5011607;28;20018;-79
2023/12/30 01:55:38;;;;;;;8.43;1.60;;;;;;;;;;5012677;28;20454;-80
2023/12/30 01:58:03;;;;;;;11.25;2.22;;;;;;;;;;5012032;28;20125;-80
2023/12/30 02:00:31;;;;;;;10.10;2.00;;;;;;;;;;5011464;28;20029;-80
2023/12/30 02:02:56;;;;;;;9.20;1.75;;;;;;;;;;5011802;28;20061;-80
2023/12/30 02:05:21;;;;;;;12.00;1.80;;;;;;;;;;5011631;28;20425;-80
2023/12/30 02:07:47;;;;;;;17.27;1.58;;;;;;;;;;5011208;28;20487;-80
2023/12/30 02:10:13;;;;;;;15.00;2.63;;;;;;;;;;5011533;28;20041;-79
2023/12/30 02:12:38;;;;;;;17.17;2.17;;;;;;;;;;5011545;28;20101;-80
2023/12/30 02:15:13;;;;;;;17.70;2.00;;;;;;;;;;5013311;28;20022;-80
2023/12/30 02:17:38;;;;;;;18.77;2.15;;;;;;;;;;5015697;28;20102;-81
2023/12/30 02:20:04;;;;;;;15.80;2.15;;;;;;;;;;5014946;28;20470;-80
2023/12/30 02:22:29;;;;;;;14.10;2.03;;;;;;;;;;5014650;28;20025;-80
2023/12/30 02:24:59;;;;;;;11.57;1.70;;;;;;;;;;5013928;28;20029;-81
2023/12/30 02:27:24;;;;;;;5.88;1.58;;;;;;;;;;5014783;28;20029;-81
2023/12/30 02:29:49;;;;;;;12.87;1.47;;;;;;;;;;5015336;28;20033;-81
2023/12/30 02:32:15;;;;;;;11.23;1.90;;;;;;;;;;5014805;28;20265;-78
2023/12/30 02:34:40;;;;;;;13.95;2.72;;;;;;;;;;5014555;28;20257;-80
2023/12/30 02:37:06;;;;;;;10.00;1.97;;;;;;;;;;5015231;28;20033;-80
2023/12/30 02:39:31;;;;;;;11.63;2.60;;;;;;;;;;5014671;28;20609;-81
2023/12/30 02:41:56;;;;;;;12.17;2.13;;;;;;;;;;5014457;28;20768;-81
2023/12/30 02:44:21;;;;;;;5.75;1.52;;;;;;;;;;5014687;28;20268;-81
2023/12/30 02:46:47;;;;;;;10.85;2.78;;;;;;;;;;5014603;28;20429;-81
2023/12/30 02:49:12;;;;;;;20.48;3.08;;;;;;;;;;5014660;28;20471;-80
2023/12/30 02:51:37;;;;;;;16.27;1.98;;;;;;;;;;5014738;28;20029;-81
2023/12/30 02:54:02;;;;;;;23.30;2.13;;;;;;;;;;5014487;28;20064;-81
2023/12/30 02:56:27;;;;;;;11.23;1.95;;;;;;;;;;5014798;28;20455;-81
2023/12/30 02:58:53;;;;;;;11.95;1.90;;;;;;;;;;5013632;28;20053;-80
2023/12/30 03:01:18;;;;;;;8.35;1.85;;;;;;;;;;5014285;28;20105;-81
2023/12/30 03:03:43;;;;;;;11.87;1.50;;;;;;;;;;5014194;28;20028;-81
2023/12/30 03:06:08;;;;;;;20.42;1.73;;;;;;;;;;5014184;28;20275;-79
2023/12/30 03:08:34;;;;;;;7.72;1.83;;;;;;;;;;5014057;28;20037;-81
2023/12/30 03:11:01;;;;;;;7.28;1.70;;;;;;;;;;5014881;28;20080;-80
2023/12/30 03:13:26;;;;;;;9.48;1.77;;;;;;;;;;5013934;28;20056;-81
2023/12/30 03:15:52;;;;;;;11.60;1.40;;;;;;;;;;5013969;28;20034;-80
2023/12/30 03:18:17;;;;;;;14.52;2.42;;;;;;;;;;5013670;28;20276;-80
2023/12/30 03:20:42;;;;;;;12.00;1.40;;;;;;;;;;5013737;28;20036;-81
2023/12/30 03:23:07;;;;;;;13.57;2.28;;;;;;;;;;5014148;28;20268;-80
2023/12/30 03:25:32;;;;;;;10.60;1.90;;;;;;;;;;5013565;28;20029;-80
2023/12/30 03:27:58;;;;;;;13.60;1.70;;;;;;;;;;5013561;28;20025;-78
2023/12/30 03:30:23;;;;;;;12.57;1.90;;;;;;;;;;5013159;28;20269;-77
2023/12/30 03:32:48;;;;;;;6.20;1.42;;;;;;;;;;5013574;28;20141;-78
2023/12/30 03:35:14;;;;;;;6.83;1.63;;;;;;;;;;5013584;28;20101;-80
2023/12/30 03:37:39;;;;;;;11.00;2.28;;;;;;;;;;5013381;28;20253;-78
2023/12/30 03:40:04;;;;;;;14.25;1.70;;;;;;;;;;5013343;28;20109;-81
2023/12/30 03:42:30;;;;;;;10.30;1.50;;;;;;;;;;5011848;28;20042;-86
2023/12/30 03:44:56;;;;;;;12.90;1.67;;;;;;;;;;5013185;28;20163;-81
2023/12/30 03:47:22;;;;;;;9.50;1.77;;;;;;;;;;5013260;28;20345;-80
2023/12/30 03:49:47;;;;;;;6.07;1.50;;;;;;;;;;5013226;28;20032;-78
2023/12/30 03:52:12;;;;;;;13.83;1.67;;;;;;;;;;5013324;28;20268;-80
2023/12/30 03:54:37;;;;;;;12.68;1.42;;;;;;;;;;5012675;28;20654;-81
2023/12/30 03:57:03;;;;;;;7.03;1.70;;;;;;;;;;5013293;28;20030;-79
2023/12/30 03:59:28;;;;;;;9.10;1.98;;;;;;;;;;5013515;28;20033;-79
2023/12/30 04:01:53;;;;;;;5.33;1.50;;;;;;;;;;5013128;28;20026;-80
2023/12/30 04:04:18;;;;;;;6.27;1.17;;;;;;;;;;5012993;28;20257;-78
2023/12/30 04:06:43;;;;;;;6.32;0.98;;;;;;;;;;5012969;28;20767;-79
2023/12/30 04:09:09;;;;;;;9.95;1.88;;;;;;;;;;5013148;28;20404;-79
2023/12/30 04:11:34;;;;;;;8.07;2.23;;;;;;;;;;5012943;28;20029;-79
2023/12/30 04:13:59;;;;;;;12.00;2.23;;;;;;;;;;5012840;28;20733;-78
2023/12/30 04:16:24;;;;;;;8.02;1.20;;;;;;;;;;5012842;28;20260;-79
2023/12/30 04:18:50;;;;;;;15.27;2.00;;;;;;;;;;5013093;28;20381;-79
2023/12/30 04:21:15;;;;;;;10.38;1.63;;;;;;;;;;5012712;28;20261;-79
2023/12/30 04:23:40;;;;;;;9.13;1.55;;;;;;;;;;5012596;28;20076;-79
2023/12/30 04:26:05;;;;;;;19.27;1.80;;;;;;;;;;5012667;28;20027;-79
2023/12/30 04:28:30;;;;;;;11.57;1.47;;;;;;;;;;5012560;28;20064;-76
2023/12/30 04:30:56;;;;;;;10.23;2.17;;;;;;;;;;5012809;28;20264;-79
2023/12/30 04:33:21;;;;;;;11.73;1.70;;;;;;;;;;5011928;28;20060;-79
2023/12/30 04:35:46;;;;;;;8.13;1.50;;;;;;;;;;5012601;28;20025;-79
2023/12/30 04:38:11;;;;;;;12.07;2.22;;;;;;;;;;5011942;28;20277;-80
2023/12/30 04:40:37;;;;;;;6.07;1.80;;;;;;;;;;5012970;28;20025;-79
2023/12/30 04:43:02;;;;;;;10.55;1.90;;;;;;;;;;5012602;28;20026;-78
2023/12/30 04:45:27;;;;;;;13.93;2.40;;;;;;;;;;5010935;28;20052;-79
2023/12/30 04:47:53;;;;;;;9.93;1.70;;;;;;;;;;5012266;28;20033;-80
2023/12/30 04:50:18;;;;;;;8.77;1.70;;;;;;;;;;5013113;28;20757;-79
2023/12/30 04:52:44;;;;;;;10.07;1.90;;;;;;;;;;5012343;28;20030;-79
2023/12/30 04:55:09;;;;;;;11.48;1.83;;;;;;;;;;5012622;28;20096;-80
2023/12/30 04:57:34;;;;;;;12.55;1.63;;;;;;;;;;5012190;28;20091;-78
2023/12/30 04:59:59;;;;;;;8.15;1.67;;;;;;;;;;5012740;28;20427;-79
2023/12/30 05:02:25;;;;;;;7.97;1.40;;;;;;;;;;5012215;28;20510;-79
2023/12/30 05:04:50;;;;;;;10.95;1.67;;;;;;;;;;5011924;28;20068;-78
2023/12/30 05:07:15;;;;;;;4.50;1.13;;;;;;;;;;5012136;28;20113;-79
2023/12/30 05:09:40;;;;;;;11.30;1.45;;;;;;;;;;5012156;28;20030;-78
2023/12/30 05:12:06;;;;;;;6.47;1.48;;;;;;;;;;5012128;28;20073;-79
2023/12/30 05:14:31;;;;;;;6.63;1.45;;;;;;;;;;5011945;28;20033;-78
2023/12/30 05:16:56;;;;;;;6.10;1.50;;;;;;;;;;5012439;28;20034;-79
2023/12/30 05:19:22;;;;;;;14.85;1.65;;;;;;;;;;5011779;28;20026;-79
2023/12/30 05:21:51;;;;;;;14.68;2.63;;;;;;;;;;5012058;28;20053;-78
2023/12/30 05:24:16;;;;;;;4.30;1.65;;;;;;;;;;5011660;28;20378;-79
2023/12/30 05:26:41;;;;;;;7.07;1.40;;;;;;;;;;5011428;28;20030;-81
2023/12/30 05:29:06;;;;;;;8.07;1.33;;;;;;;;;;5011662;28;20026;-78
2023/12/30 05:31:32;;;;;;;17.67;1.97;;;;;;;;;;5011927;28;20752;-78
2023/12/30 05:33:57;;;;;;;9.65;1.58;;;;;;;;;;5011995;28;20264;-79
2023/12/30 05:36:22;;;;;;;7.82;1.90;;;;;;;;;;5011838;28;20101;-79
2023/12/30 05:38:47;;;;;;;10.00;1.45;;;;;;;;;;5011580;28;20042;-80
2023/12/30 05:41:12;;;;;;;8.07;1.55;;;;;;;;;;5011753;28;20351;-79
2023/12/30 05:43:38;;;;;;;9.97;1.43;;;;;;;;;;5011617;28;20101;-79
2023/12/30 05:46:04;;;;;;;11.82;1.40;;;;;;;;;;5011512;28;20344;-79
2023/12/30 05:48:29;;;;;;;5.77;1.47;;;;;;;;;;5011845;28;20108;-79
2023/12/30 05:50:54;;;;;;;10.07;1.60;;;;;;;;;;5015650;28;20702;-79
2023/12/30 05:53:19;;;;;;;8.50;1.10;;;;;;;;;;5015135;28;20457;-79
2023/12/30 05:55:44;;;;;;;16.10;1.80;;;;;;;;;;5014987;28;20049;-79
2023/12/30 05:58:10;;;;;;;8.60;1.47;;;;;;;;;;5015278;28;20073;-79
2023/12/30 06:00:35;;;;;;;9.53;1.50;;;;;;;;;;5014182;28;20257;-80
2023/12/30 06:03:00;;;;;;;10.23;1.73;;;;;;;;;;5015182;28;20607;-80
2023/12/30 06:05:25;;;;;;;9.93;1.83;;;;;;;;;;5014990;28;20751;-79
2023/12/30 06:07:51;;;;;;;8.98;1.65;;;;;;;;;;5014973;28;20176;-80
2023/12/30 06:10:16;;;;;;;7.40;1.40;;;;;;;;;;5015051;28;20308;-79
2023/12/30 06:12:42;;;;;;;15.07;2.08;;;;;;;;;;5014984;28;20037;-78
2023/12/30 06:15:07;;;;;;;15.60;1.90;;;;;;;;;;5014906;28;20029;-78
2023/12/30 06:17:32;;;;;;;10.18;1.70;;;;;;;;;;5014883;28;20272;-79
2023/12/30 06:19:58;;;;;;;6.40;1.80;;;;;;;;;;5014639;28;20525;-78
2023/12/30 06:22:23;;;;;;;7.15;1.95;;;;;;;;;;5014918;28;20022;-78
2023/12/30 06:24:48;;;;;;;11.70;1.80;;;;;;;;;;5014849;28;20140;-78
2023/12/30 06:27:14;;;;;;;10.03;1.90;;;;;;;;;;5014707;28;20026;-78
2023/12/30 06:29:39;;;;;;;12.80;2.43;;;;;;;;;;5014867;28;20307;-79
2023/12/30 06:32:05;;;;;;;15.25;1.58;;;;;;;;;;5014452;28;20597;-79
2023/12/30 06:34:31;;;;;;;7.38;1.38;;;;;;;;;;5014704;28;20038;-79
2023/12/30 06:36:56;;;;;;;15.98;1.90;;;;;;;;;;5014478;28;20072;-79
2023/12/30 06:39:22;;;;;;;5.53;1.48;;;;;;;;;;5014584;28;20018;-80
2023/12/30 06:41:47;;;;;;;9.48;1.48;;;;;;;;;;5014337;28;20034;-80
2023/12/30 06:44:12;;;;;;;14.47;2.27;;;;;;;;;;5014232;28;20030;-79
2023/12/30 06:46:37;;;;;;;8.57;1.57;;;;;;;;;;5014098;28;20315;-79
2023/12/30 06:49:02;;;;;;;6.53;1.42;;;;;;;;;;5014271;28;20757;-79
2023/12/30 06:51:28;;;;;;;10.57;2.53;;;;;;;;;;5014549;28;20391;-79
2023/12/30 06:53:53;;;;;;;12.40;1.80;;;;;;;;;;5013976;28;20721;-79
2023/12/30 06:56:19;;;;;;;7.72;1.38;;;;;;;;;;5013218;28;20044;-79
2023/12/30 06:58:45;;;;;;;11.45;2.10;;;;;;;;;;5014384;28;20029;-80
2023/12/30 07:01:13;;;;;;;11.43;1.95;;;;;;;;;;5013195;28;20042;-81
2023/12/30 07:03:38;;;;;;;8.65;1.20;;;;;;;;;;5013815;28;20026;-79
2023/12/30 07:06:04;;;;;;;11.50;2.38;;;;;;;;;;5014214;28;20072;-79
2023/12/30 07:08:29;;;;;;;12.63;1.40;;;;;;;;;;5014098;28;20065;-79
2023/12/30 07:10:55;;;;;;;11.93;2.05;;;;;;;;;;5014289;28;20022;-78
2023/12/30 07:13:20;;;;;;;16.77;2.00;;;;;;;;;;5013997;28;20038;-79
2023/12/30 07:15:47;;;;;;;14.52;1.55;;;;;;;;;;5013878;28;20411;-80
2023/12/30 07:18:12;;;;;;;14.68;1.98;;;;;;;;;;5013711;28;20037;-80
2023/12/30 07:20:37;;;;;;;16.83;2.28;;;;;;;;;;5013710;28;20022;-79
2023/12/30 07:23:04;;;;;;;9.93;2.00;;;;;;;;;;5013440;28;20037;-81
2023/12/30 07:25:29;;;;;;;10.07;1.70;;;;;;;;;;5013316;28;20021;-79
2023/12/30 07:27:54;;;;;;;15.88;1.98;;;;;;;;;;5013632;28;20030;-80
2023/12/30 07:30:20;;;;;;;14.27;1.73;;;;;;;;;;5013125;28;20431;-80
2023/12/30 07:32:45;;;;;;;10.18;1.85;;;;;;;;;;5013544;28;20014;-80
2023/12/30 07:35:10;;;;;;;7.25;2.25;;;;;;;;;;5013260;28;20522;-79
2023/12/30 07:37:35;;;;;;;14.20;2.17;;;;;;;;;;5013498;28;20496;-80
2023/12/30 07:40:02;;;;;;;12.75;1.83;;;;;;;;;;5013275;28;20507;-80
2023/12/30 07:42:27;;;;;;;8.50;1.88;;;;;;;;;;5013881;28;20033;-82
2023/12/30 07:44:53;;;;;;;11.52;1.95;;;;;;;;;;5013811;28;20386;-81
2023/12/30 07:47:18;;;;;;;9.85;1.73;;;;;;;;;;5013332;28;20026;-79
2023/12/30 07:49:43;;;;;;;10.48;1.67;;;;;;;;;;5013715;28;20022;-83
2023/12/30 07:52:09;;;;;;;9.30;1.73;;;;;;;;;;5013640;28;20026;-82
2023/12/30 07:54:34;;;;;;;12.87;1.93;;;;;;;;;;5013756;28;20050;-81
2023/12/30 07:56:59;;;;;;;17.67;1.75;;;;;;;;;;5013594;28;20260;-79
2023/12/30 07:59:25;;;;;;;10.52;2.00;;;;;;;;;;5013653;28;20021;-82
2023/12/30 08:01:51;;;;;;;13.25;1.98;;;;;;;;;;5014310;28;20022;-81
2023/12/30 08:04:16;;;;;;;12.75;2.15;;;;;;;;;;5014562;28;20421;-82
2023/12/30 08:06:42;;;;;;;13.65;2.05;;;;;;;;;;5015195;28;20068;-82
2023/12/30 08:09:07;;;;;;;16.55;2.47;;;;;;;;;;5016289;28;20053;-81
2023/12/30 08:11:34;;;;;;;15.52;2.33;;;;;;;;;;5015428;28;20056;-81
2023/12/30 08:13:59;;;;;;;16.33;1.70;;;;;;;;;;5012916;28;20014;-81
2023/12/30 08:16:24;;;;;;;11.27;2.22;;;;;;;;;;5012874;28;20032;-81
2023/12/30 08:18:50;;;;;;;19.10;1.93;;;;;;;;;;5012602;28;20040;-79
2023/12/30 08:21:15;;;;;;;15.52;2.00;;;;;;;;;;5012679;28;20594;-78
2023/12/30 08:23:40;;;;;;;10.38;1.50;;;;;;;;;;5012473;28;20101;-78
2023/12/30 08:26:05;;;;;;;7.18;1.88;;;;;;;;;;5012606;28;20049;-78
2023/12/30 08:28:31;;;;;;;7.78;1.83;;;;;;;;;;5013063;28;20056;-78
2023/12/30 08:30:59;;;;;;;16.50;2.00;;;;;;;;;;5012393;28;20528;-78
2023/12/30 08:33:24;;;;;;;15.23;2.10;;;;;;;;;;5011714;28;20117;-79
2023/12/30 08:35:49;;;;;;;13.63;2.05;;;;;;;;;;5012646;28;20130;-80
2023/12/30 08:38:16;;;;;;;15.18;2.10;;;;;;;;;;5012451;28;20030;-78
2023/12/30 08:40:41;;;;;;;11.63;1.95;;;;;;;;;;5012261;28;20360;-78
2023/12/30 08:43:07;;;;;;;12.95;1.85;;;;;;;;;;5012012;28;20100;-76
2023/12/30 08:45:32;;;;;;;10.13;1.95;;;;;;;;;;5012269;28;20033;-78
2023/12/30 08:47:57;;;;;;;13.03;2.47;;;;;;;;;;5012174;28;20107;-81
2023/12/30 08:50:22;;;;;;;9.20;2.47;;;;;;;;;;5012885;28;20292;-79
2023/12/30 08:52:47;;;;;;;17.33;2.05;;;;;;;;;;5011879;28;20049;-79
2023/12/30 08:55:13;;;;;;;9.63;1.80;;;;;;;;;;5011423;28;20049;-79
2023/12/30 08:57:38;;;;;;;10.30;1.88;;;;;;;;;;5012410;28;20081;-77
2023/12/30 09:00:08;;;;;;;13.57;2.33;;;;;;;;;;5011471;28;20029;-77
2023/12/30 09:02:33;;;;;;;11.52;1.85;;;;;;;;;;5011583;28;20030;-77
2023/12/30 09:04:59;;;;;;;13.77;2.03;;;;;;;;;;5011391;28;20120;-76
2023/12/30 09:07:24;;;;;;;12.55;2.20;;;;;;;;;;5011458;28;20091;-77
2023/12/30 09:09:49;;;;;;;13.23;1.83;;;;;;;;;;5012924;28;20061;-77
2023/12/30 09:12:14;;;;;;;18.20;2.47;;;;;;;;;;5012537;28;20352;-78
2023/12/30 09:14:39;;;;;;;13.05;2.70;;;;;;;;;;5012841;28;20109;-78
2023/12/30 09:17:05;;;;;;;12.40;2.10;;;;;;;;;;5012647;28;20056;-79
2023/12/30 09:19:30;;;;;;;7.93;1.97;;;;;;;;;;5012868;28;20257;-80
2023/12/30 09:21:55;;;;;;;16.35;2.22;;;;;;;;;;5012547;28;20701;-79
2023/12/30 09:24:21;;;;;;;13.75;2.50;;;;;;;;;;5014569;28;20077;-79
2023/12/30 09:26:46;;;;;;;9.98;1.98;;;;;;;;;;5016707;28;20032;-81
2023/12/30 09:29:11;;;;;;;10.77;2.28;;;;;;;;;;5016385;28;20025;-79
2023/12/30 09:31:36;;;;;;;5.75;1.88;;;;;;;;;;5016122;28;20030;-77
2023/12/30 09:34:01;;;;;;;11.07;2.53;;;;;;;;;;5016551;28;20029;-76
2023/12/30 09:36:28;;;;;;;24.92;2.92;;;;;;;;;;5016232;28;20331;-77
2023/12/30 09:38:53;;;;;;;22.42;2.95;;;;;;;;;;5016627;28;20449;-75
2023/12/30 09:41:20;;;;;;;11.37;3.10;;;;;;;;;;5016377;28;20049;-76
2023/12/30 09:43:47;;;;;;;10.88;2.35;;;;;;;;;;5016078;28;20257;-77
2023/12/30 09:46:13;;;;;;;15.02;4.15;;;;;;;;;;5016283;28;20029;-77
2023/12/30 09:48:39;;;;;;;14.38;2.20;;;;;;;;;;5015983;28;20030;-78
2023/12/30 09:51:04;;;;;;;15.82;2.45;;;;;;;;;;5016108;28;20034;-78
2023/12/30 09:53:30;;;;;;;14.25;2.00;;;;;;;;;;5016546;28;20022;-78
2023/12/30 09:55:56;;;;;;;13.00;2.33;;;;;;;;;;5016474;28;20474;-82
2023/12/30 09:58:22;;;;;;;15.05;2.35;;;;;;;;;;5015820;28;20030;-79
2023/12/30 10:00:47;;;;;;;16.33;2.83;;;;;;;;;;5016119;28;20109;-81
2023/12/30 10:03:13;;;;;;;20.63;3.28;;;;;;;;;;5016118;28;20058;-80
2023/12/30 10:05:38;;;;;;;18.25;2.53;;;;;;;;;;5015729;28;20046;-79
2023/12/30 10:08:04;;;;;;;13.15;2.13;;;;;;;;;;5015482;28;20018;-78
2023/12/30 10:10:46;;;;;;;10.88;2.28;;;;;;;;;;5015879;28;20021;-78
2023/12/30 10:13:12;;;;;;;15.40;3.10;;;;;;;;;;5016162;28;20014;-80
2023/12/30 10:15:38;;;;;;;16.63;2.58;;;;;;;;;;5015724;28;20032;-79
2023/12/30 10:18:04;;;;;;;16.08;2.65;;;;;;;;;;5016073;28;20416;-79
2023/12/30 10:20:29;;;;;;;13.77;3.70;;;;;;;;;;5014386;28;20030;-80
2023/12/30 10:22:55;;;;;;;13.27;2.45;;;;;;;;;;5015507;28;20026;-79
2023/12/30 10:25:21;;;;;;;11.38;2.22;;;;;;;;;;5015413;28;20355;-78
2023/12/30 10:27:49;;;;;;;21.53;3.63;;;;;;;;;;5013459;28;20125;-81
2023/12/30 10:30:20;;;;;;;16.38;2.45;;;;;;;;;;5014787;28;20277;-77
2023/12/30 10:32:46;;;;;;;21.45;2.45;;;;;;;;;;5014861;28;20370;-77
2023/12/30 10:35:12;;;;;;;20.88;2.72;;;;;;;;;;5013777;28;20057;-77
2023/12/30 10:37:37;;;;;;;20.92;2.85;;;;;;;;;;5013533;28;20026;-76
2023/12/30 10:40:05;;;;;;;16.73;2.60;;;;;;;;;;5014752;28;20030;-77
2023/12/30 10:42:30;;;;;;;19.10;2.75;;;;;;;;;;5014497;28;20022;-79
2023/12/30 10:44:55;;;;;;;16.52;2.40;;;;;;;;;;5014403;28;20046;-76
2023/12/30 10:47:21;;;;;;;11.30;2.78;;;;;;;;;;5014130;28;20065;-77
2023/12/30 10:49:50;;;;;;;11.32;2.83;;;;;;;;;;5014231;28;20034;-77
2023/12/30 10:52:18;;;;;;;12.95;2.45;;;;;;;;;;5015054;28;20323;-75
2023/12/30 10:54:47;;;;;;;17.00;2.53;;;;;;;;;;5014126;28;20166;-76
2023/12/30 10:57:14;;;;;;;17.48;2.88;;;;;;;;;;5013693;28;20026;-76
2023/12/30 10:59:41;;;;;;;15.68;2.67;;;;;;;;;;5013909;28;20021;-78
2023/12/30 11:02:08;;;;;;;10.88;3.38;;;;;;;;;;5013852;28;20028;-76
2023/12/30 11:04:33;;;;;;;22.73;3.15;;;;;;;;;;5013709;28;20113;-78
2023/12/30 11:06:59;;;;;;;23.08;6.93;;;;;;;;;;5012657;28;20419;-76
2023/12/30 11:09:24;;;;;;;20.77;3.25;;;;;;;;;;5014058;28;20029;-76
2023/12/30 11:11:53;;;;;;;19.50;3.30;;;;;;;;;;5013637;28;20018;-77
2023/12/30 11:14:19;;;;;;;22.08;3.22;;;;;;;;;;5014379;28;20022;-77
2023/12/30 11:16:45;;;;;;;17.52;3.88;;;;;;;;;;5013834;28;20025;-76
2023/12/30 11:19:11;;;;;;;24.70;3.92;;;;;;;;;;5014087;28;20030;-75
2023/12/30 11:21:43;;;;;;;26.42;4.43;;;;;;;;;;5013355;28;20194;-76
2023/12/30 11:24:11;;;;;;;15.88;2.92;;;;;;;;;;5013617;28;20018;-76
2023/12/30 11:26:41;;;;;;;26.80;3.40;;;;;;;;;;5013922;28;20022;-76
2023/12/30 11:29:11;;;;;;;14.60;2.92;;;;;;;;;;5013456;28;20036;-76
2023/12/30 11:31:37;;;;;;;16.48;3.10;;;;;;;;;;5013716;28;20022;-77
2023/12/30 11:34:04;;;;;;;20.40;4.65;;;;;;;;;;5013490;28;20026;-76
2023/12/30 11:36:30;;;;;;;20.38;4.30;;;;;;;;;;5014208;28;20026;-76
2023/12/30 11:38:56;;;;;;;19.35;4.00;;;;;;;;;;5013167;28;20108;-76
2023/12/30 11:41:22;;;;;;;32.50;11.18;;;;;;;;;;5013374;28;20022;-76
2023/12/30 11:43:48;;;;;;;23.40;4.70;;;;;;;;;;5013806;28;20052;-76
2023/12/30 11:46:13;;;;;;;24.58;4.30;;;;;;;;;;5013322;28;20034;-76
2023/12/30 11:48:40;;;;;;;17.15;5.10;;;;;;;;;;5012942;28;20029;-76
2023/12/30 11:51:07;;;;;;;63.35;31.40;;;;;;;;;;5013330;28;20060;-76
2023/12/30 11:53:35;;;;;;;26.52;5.25;;;;;;;;;;5012052;28;20528;-76
2023/12/30 11:56:01;;;;;;;17.27;4.93;;;;;;;;;;5012772;28;20054;-76
2023/12/30 11:58:27;;;;;;;30.63;5.85;;;;;;;;;;5013500;28;20358;-75
2023/12/30 12:00:53;;;;;;;15.68;5.53;;;;;;;;;;5013208;28;20140;-75
2023/12/30 12:03:18;;;;;;;29.25;8.15;;;;;;;;;;5011447;28;20202;-74
2023/12/30 12:05:43;;;;;;;22.50;6.38;;;;;;;;;;5012441;28;20107;-75
2023/12/30 12:08:10;;;;;;;24.77;6.40;;;;;;;;;;5012253;28;20040;-75
2023/12/30 12:10:35;;;;;;;18.08;6.47;;;;;;;;;;5011880;28;20124;-76
2023/12/30 12:13:02;;;;;;;26.25;7.55;;;;;;;;;;5011875;28;20482;-75
2023/12/30 12:15:28;;;;;;;23.30;7.25;;;;;;;;;;5011993;28;20021;-75
2023/12/30 12:17:53;;;;;;;22.15;6.63;;;;;;;;;;5012072;28;20442;-75
2023/12/30 12:20:18;;;;;;;22.58;7.22;;;;;;;;;;5012206;28;20076;-76
2023/12/30 12:22:46;;;;;;;18.85;7.32;;;;;;;;;;5012493;28;20022;-76
2023/12/30 12:25:11;;;;;;;28.77;8.68;;;;;;;;;;5012587;28;20105;-75
2023/12/30 12:27:36;;;;;;;27.73;8.30;;;;;;;;;;5011326;28;20109;-75
2023/12/30 12:30:03;;;;;;;31.02;9.43;;;;;;;;;;5013584;28;20077;-77
2023/12/30 12:32:28;;;;;;;31.42;9.32;;;;;;;;;;5012826;28;20021;-76
2023/12/30 12:34:54;;;;;;;26.25;8.88;;;;;;;;;;5010681;28;20029;-77
2023/12/30 12:37:19;;;;;;;30.58;8.93;;;;;;;;;;5011986;28;20022;-76
2023/12/30 12:39:45;;;;;;;24.80;8.80;;;;;;;;;;5011858;28;20013;-75
2023/12/30 12:42:11;;;;;;;24.90;8.45;;;;;;;;;;5011603;28;20030;-77
2023/12/30 12:44:36;;;;;;;28.63;8.30;;;;;;;;;;5012043;28;20021;-78
2023/12/30 12:47:01;;;;;;;22.33;7.10;;;;;;;;;;5010705;28;20029;-76
2023/12/30 12:49:27;;;;;;;21.50;6.18;;;;;;;;;;5011899;28;20033;-77
2023/12/30 12:51:52;;;;;;;23.75;7.20;;;;;;;;;;5012389;28;20037;-76
2023/12/30 12:54:17;;;;;;;22.08;7.25;;;;;;;;;;5010955;28;20081;-76
2023/12/30 12:56:43;;;;;;;20.60;6.40;;;;;;;;;;5010043;28;20036;-76
2023/12/30 12:59:08;;;;;;;22.85;5.60;;;;;;;;;;5010456;28;20033;-76
2023/12/30 13:01:34;;;;;;;19.00;5.65;;;;;;;;;;5011477;28;20129;-76
2023/12/30 13:04:00;;;;;;;19.58;4.95;;;;;;;;;;5011437;28;20026;-77
2023/12/30 13:06:26;;;;;;;19.52;4.90;;;;;;;;;;5011436;28;20028;-77
2023/12/30 13:08:56;;;;;;;19.05;5.00;;;;;;;;;;5011714;28;20112;-76
2023/12/30 13:11:27;;;;;;;19.25;4.80;;;;;;;;;;5012049;28;20026;-77
2023/12/30 13:13:53;;;;;;;18.58;5.10;;;;;;;;;;5011316;28;20109;-77
2023/12/30 13:16:19;;;;;;;24.92;9.98;;;;;;;;;;5011439;28;20124;-76
2023/12/30 13:18:44;;;;;;;26.52;7.75;;;;;;;;;;5011656;28;20113;-76
2023/12/30 13:21:09;;;;;;;21.65;7.80;;;;;;;;;;5011452;28;20044;-77
2023/12/30 13:23:35;;;;;;;23.13;7.07;;;;;;;;;;5010475;28;20185;-77
2023/12/30 13:26:00;;;;;;;26.58;8.18;;;;;;;;;;5011266;28;20105;-77
2023/12/30 13:28:26;;;;;;;23.05;6.80;;;;;;;;;;5011420;28;20032;-77
2023/12/30 13:30:51;;;;;;;26.70;7.28;;;;;;;;;;5010994;28;20049;-77
2023/12/30 13:33:20;;;;;;;21.15;6.65;;;;;;;;;;5011673;28;20132;-77
2023/12/30 13:35:46;;;;;;;22.85;6.50;;;;;;;;;;5011845;28;20041;-78
2023/12/30 13:38:15;;;;;;;16.58;6.28;;;;;;;;;;5011367;28;20445;-76
2023/12/30 13:40:41;;;;;;;18.55;5.82;;;;;;;;;;5011374;28;20033;-76
2023/12/30 13:43:10;;;;;;;20.80;6.00;;;;;;;;;;5011200;28;20026;-77
2023/12/30 13:45:37;;;;;;;16.00;4.80;;;;;;;;;;5011340;28;20032;-77
2023/12/30 13:50:36;;;;;;;18.40;4.72;;;;;;;;;;5011205;28;20520;-74
2023/12/30 13:53:02;;;;;;;14.48;5.10;;;;;;;;;;5011212;28;20477;-75
2023/12/30 13:55:30;;;;;;;16.50;4.43;;;;;;;;;;5011714;28;20136;-78
2023/12/30 13:57:55;;;;;;;15.15;4.88;;;;;;;;;;5011557;28;20030;-76
2023/12/30 14:00:21;;;;;;;18.88;4.85;;;;;;;;;;5011687;28;20034;-75
2023/12/30 14:02:48;;;;;;;15.32;5.07;;;;;;;;;;5011332;28;20030;-75
2023/12/30 14:05:33;;;;;;;24.48;5.43;;;;;;;;;;5011098;28;20454;-76
2023/12/30 14:08:16;;;;;;;14.50;4.82;;;;;;;;;;5011356;28;20461;-74
2023/12/30 14:10:48;;;;;;;16.75;4.45;;;;;;;;;;5013211;28;20029;-75
2023/12/30 14:13:22;;;;;;;21.73;8.07;;;;;;;;;;5014777;28;20032;-75
2023/12/30 14:15:47;;;;;;;22.15;4.80;;;;;;;;;;5014531;28;20457;-75
2023/12/30 14:18:13;;;;;;;18.80;4.00;;;;;;;;;;5014556;28;20061;-76
2023/12/30 14:20:39;;;;;;;13.15;4.22;;;;;;;;;;5014401;28;20037;-75
2023/12/30 14:23:05;;;;;;;11.57;3.70;;;;;;;;;;5014373;28;20022;-75
2023/12/30 14:25:30;;;;;;;15.90;4.47;;;;;;;;;;5014460;28;20087;-75
2023/12/30 14:27:55;;;;;;;11.98;3.53;;;;;;;;;;5014068;28;20463;-74